sensor_id;sensor_type;location;lat;lon;timestamp;P1;durP1;ratioP1;P2;durP2;ratioP2
60722;SDS011;46574;52.818;6.516;2022-08-19T00:01:23;8.82;;;7.95;;
60722;SDS011;46574;52.818;6.516;2022-08-19T00:03:50;8.27;;;7.50;;
60722;SDS011;46574;52.818;6.516;2022-08-19T00:06:16;8.70;;;7.82;;
60722;SDS011;46574;52.818;6.516;2022-08-19T00:08:41;8.68;;;7.78;;
60722;SDS011;46574;52.818;6.516;2022-08-19T00:11:08;8.43;;;7.40;;
60722;SDS011;46574;52.818;6.516;2022-08-19T00:13:34;7.85;;;7.05;;
60722;SDS011;46574;52.818;6.516;2022-08-19T00:16:00;8.45;;;7.28;;
60722;SDS011;46574;52.818;6.516;2022-08-19T00:18:26;7.60;;;6.82;;
60722;SDS011;46574;52.818;6.516;2022-08-19T00:20:52;8.75;;;7.88;;
60722;SDS011;46574;52.818;6.516;2022-08-19T00:23:18;8.68;;;7.78;;
60722;SDS011;46574;52.818;6.516;2022-08-19T00:25:44;8.18;;;7.45;;
60722;SDS011;46574;52.818;6.516;2022-08-19T00:28:10;8.60;;;7.80;;
60722;SDS011;46574;52.818;6.516;2022-08-19T00:30:36;9.18;;;8.27;;
60722;SDS011;46574;52.818;6.516;2022-08-19T00:33:02;8.85;;;7.93;;
60722;SDS011;46574;52.818;6.516;2022-08-19T00:35:28;7.80;;;7.00;;
60722;SDS011;46574;52.818;6.516;2022-08-19T00:37:53;9.05;;;7.88;;
60722;SDS011;46574;52.818;6.516;2022-08-19T00:40:19;8.85;;;7.95;;
60722;SDS011;46574;52.818;6.516;2022-08-19T00:42:45;9.35;;;8.40;;
60722;SDS011;46574;52.818;6.516;2022-08-19T00:45:14;8.07;;;7.28;;
60722;SDS011;46574;52.818;6.516;2022-08-19T00:47:42;7.28;;;6.57;;
60722;SDS011;46574;52.818;6.516;2022-08-19T00:50:09;7.65;;;6.88;;
60722;SDS011;46574;52.818;6.516;2022-08-19T00:52:42;7.93;;;7.22;;
60722;SDS011;46574;52.818;6.516;2022-08-19T00:55:12;8.15;;;6.60;;
60722;SDS011;46574;52.818;6.516;2022-08-19T00:57:45;7.97;;;7.28;;
60722;SDS011;46574;52.818;6.516;2022-08-19T01:00:19;7.53;;;6.65;;
60722;SDS011;46574;52.818;6.516;2022-08-19T01:02:47;9.30;;;7.47;;
60722;SDS011;46574;52.818;6.516;2022-08-19T01:05:14;7.50;;;6.80;;
60722;SDS011;46574;52.818;6.516;2022-08-19T01:07:43;7.32;;;6.63;;
60722;SDS011;46574;52.818;6.516;2022-08-19T01:10:12;9.60;;;8.68;;
60722;SDS011;46574;52.818;6.516;2022-08-19T01:12:41;10.35;;;8.25;;
60722;SDS011;46574;52.818;6.516;2022-08-19T01:15:07;9.50;;;7.28;;
60722;SDS011;46574;52.818;6.516;2022-08-19T01:20:03;6.18;;;5.57;;
60722;SDS011;46574;52.818;6.516;2022-08-19T01:22:31;9.50;;;8.60;;
60722;SDS011;46574;52.818;6.516;2022-08-19T01:25:05;8.75;;;7.88;;
60722;SDS011;46574;52.818;6.516;2022-08-19T01:27:45;12.38;;;10.57;;
60722;SDS011;46574;52.818;6.516;2022-08-19T01:30:15;11.10;;;10.10;;
60722;SDS011;46574;52.818;6.516;2022-08-19T01:32:43;11.00;;;9.98;;
60722;SDS011;46574;52.818;6.516;2022-08-19T01:35:09;12.32;;;10.63;;
60722;SDS011;46574;52.818;6.516;2022-08-19T01:38:18;13.63;;;12.23;;
60722;SDS011;46574;52.818;6.516;2022-08-19T01:40:32;12.43;;;11.18;;
60722;SDS011;46574;52.818;6.516;2022-08-19T01:43:00;11.52;;;10.40;;
60722;SDS011;46574;52.818;6.516;2022-08-19T01:45:28;9.80;;;8.90;;
60722;SDS011;46574;52.818;6.516;2022-08-19T01:47:56;9.55;;;8.65;;
60722;SDS011;46574;52.818;6.516;2022-08-19T01:50:23;9.40;;;8.50;;
60722;SDS011;46574;52.818;6.516;2022-08-19T01:52:52;8.82;;;7.90;;
60722;SDS011;46574;52.818;6.516;2022-08-19T01:55:19;8.73;;;7.97;;
60722;SDS011;46574;52.818;6.516;2022-08-19T01:57:48;9.70;;;8.70;;
60722;SDS011;46574;52.818;6.516;2022-08-19T02:00:18;9.85;;;8.85;;
60722;SDS011;46574;52.818;6.516;2022-08-19T02:02:45;10.65;;;9.55;;
60722;SDS011;46574;52.818;6.516;2022-08-19T02:05:11;9.30;;;8.40;;
60722;SDS011;46574;52.818;6.516;2022-08-19T02:07:38;8.73;;;7.93;;
60722;SDS011;46574;52.818;6.516;2022-08-19T02:10:06;8.55;;;7.75;;
60722;SDS011;46574;52.818;6.516;2022-08-19T02:12:34;9.02;;;8.15;;
60722;SDS011;46574;52.818;6.516;2022-08-19T02:15:00;8.05;;;7.18;;
60722;SDS011;46574;52.818;6.516;2022-08-19T02:17:27;7.93;;;7.13;;
60722;SDS011;46574;52.818;6.516;2022-08-19T02:19:54;9.65;;;7.80;;
60722;SDS011;46574;52.818;6.516;2022-08-19T02:22:21;8.30;;;7.50;;
60722;SDS011;46574;52.818;6.516;2022-08-19T02:24:47;8.57;;;7.75;;
60722;SDS011;46574;52.818;6.516;2022-08-19T02:27:13;10.05;;;9.02;;
60722;SDS011;46574;52.818;6.516;2022-08-19T02:29:39;8.63;;;7.72;;
60722;SDS011;46574;52.818;6.516;2022-08-19T02:32:06;11.98;;;10.07;;
60722;SDS011;46574;52.818;6.516;2022-08-19T02:34:32;9.98;;;8.98;;
60722;SDS011;46574;52.818;6.516;2022-08-19T02:36:59;9.55;;;8.55;;
60722;SDS011;46574;52.818;6.516;2022-08-19T02:39:25;10.07;;;9.07;;
60722;SDS011;46574;52.818;6.516;2022-08-19T02:41:51;8.93;;;8.02;;
60722;SDS011;46574;52.818;6.516;2022-08-19T02:44:18;10.35;;;9.35;;
60722;SDS011;46574;52.818;6.516;2022-08-19T02:46:44;10.20;;;9.20;;
60722;SDS011;46574;52.818;6.516;2022-08-19T02:49:11;11.35;;;10.10;;
60722;SDS011;46574;52.818;6.516;2022-08-19T02:51:39;10.32;;;9.18;;
60722;SDS011;46574;52.818;6.516;2022-08-19T02:54:08;11.25;;;10.05;;
60722;SDS011;46574;52.818;6.516;2022-08-19T02:56:36;11.82;;;9.75;;
60722;SDS011;46574;52.818;6.516;2022-08-19T02:59:04;10.32;;;9.20;;
60722;SDS011;46574;52.818;6.516;2022-08-19T03:01:34;10.60;;;9.50;;
60722;SDS011;46574;52.818;6.516;2022-08-19T03:04:02;11.25;;;10.05;;
60722;SDS011;46574;52.818;6.516;2022-08-19T03:06:29;14.23;;;10.82;;
60722;SDS011;46574;52.818;6.516;2022-08-19T03:08:55;12.10;;;9.88;;
60722;SDS011;46574;52.818;6.516;2022-08-19T03:11:22;12.02;;;10.82;;
60722;SDS011;46574;52.818;6.516;2022-08-19T03:13:56;11.70;;;10.43;;
60722;SDS011;46574;52.818;6.516;2022-08-19T03:16:23;11.73;;;10.52;;
60722;SDS011;46574;52.818;6.516;2022-08-19T03:18:50;13.67;;;10.73;;
60722;SDS011;46574;52.818;6.516;2022-08-19T03:21:17;10.38;;;9.00;;
60722;SDS011;46574;52.818;6.516;2022-08-19T03:23:44;12.18;;;10.65;;
60722;SDS011;46574;52.818;6.516;2022-08-19T03:26:10;11.60;;;10.40;;
60722;SDS011;46574;52.818;6.516;2022-08-19T03:28:36;12.07;;;10.88;;
60722;SDS011;46574;52.818;6.516;2022-08-19T03:31:06;9.73;;;8.73;;
60722;SDS011;46574;52.818;6.516;2022-08-19T03:33:35;10.90;;;8.38;;
60722;SDS011;46574;52.818;6.516;2022-08-19T03:38:33;15.85;;;11.00;;
60722;SDS011;46574;52.818;6.516;2022-08-19T03:41:07;13.13;;;10.82;;
60722;SDS011;46574;52.818;6.516;2022-08-19T03:43:39;11.65;;;9.90;;
60722;SDS011;46574;52.818;6.516;2022-08-19T03:46:10;10.35;;;9.35;;
60722;SDS011;46574;52.818;6.516;2022-08-19T03:48:37;11.70;;;9.73;;
60722;SDS011;46574;52.818;6.516;2022-08-19T03:51:05;9.27;;;8.38;;
60722;SDS011;46574;52.818;6.516;2022-08-19T03:53:32;9.60;;;8.60;;
60722;SDS011;46574;52.818;6.516;2022-08-19T03:55:59;10.40;;;9.32;;
60722;SDS011;46574;52.818;6.516;2022-08-19T03:58:26;10.85;;;8.50;;
60722;SDS011;46574;52.818;6.516;2022-08-19T04:00:56;10.43;;;8.77;;
60722;SDS011;46574;52.818;6.516;2022-08-19T04:03:23;9.57;;;8.48;;
60722;SDS011;46574;52.818;6.516;2022-08-19T04:05:49;9.93;;;8.43;;
60722;SDS011;46574;52.818;6.516;2022-08-19T04:08:16;11.52;;;9.35;;
60722;SDS011;46574;52.818;6.516;2022-08-19T04:10:47;11.43;;;9.40;;
60722;SDS011;46574;52.818;6.516;2022-08-19T04:13:14;12.38;;;10.05;;
60722;SDS011;46574;52.818;6.516;2022-08-19T04:15:42;10.52;;;9.05;;
60722;SDS011;46574;52.818;6.516;2022-08-19T04:18:11;10.90;;;8.25;;
60722;SDS011;46574;52.818;6.516;2022-08-19T04:20:44;12.48;;;9.52;;
60722;SDS011;46574;52.818;6.516;2022-08-19T04:23:11;10.73;;;9.43;;
60722;SDS011;46574;52.818;6.516;2022-08-19T04:25:41;10.95;;;9.82;;
60722;SDS011;46574;52.818;6.516;2022-08-19T04:28:08;10.57;;;8.98;;
60722;SDS011;46574;52.818;6.516;2022-08-19T04:30:39;11.70;;;9.90;;
60722;SDS011;46574;52.818;6.516;2022-08-19T04:33:06;10.55;;;9.35;;
60722;SDS011;46574;52.818;6.516;2022-08-19T04:35:40;9.77;;;8.77;;
60722;SDS011;46574;52.818;6.516;2022-08-19T04:38:08;12.25;;;9.50;;
60722;SDS011;46574;52.818;6.516;2022-08-19T04:40:39;13.63;;;11.05;;
60722;SDS011;46574;52.818;6.516;2022-08-19T04:43:25;12.48;;;9.88;;
60722;SDS011;46574;52.818;6.516;2022-08-19T04:45:51;11.98;;;10.48;;
60722;SDS011;46574;52.818;6.516;2022-08-19T04:48:17;11.95;;;10.65;;
60722;SDS011;46574;52.818;6.516;2022-08-19T04:50:47;12.02;;;10.13;;
60722;SDS011;46574;52.818;6.516;2022-08-19T04:53:13;13.57;;;12.15;;
60722;SDS011;46574;52.818;6.516;2022-08-19T04:55:40;11.80;;;9.93;;
60722;SDS011;46574;52.818;6.516;2022-08-19T04:58:06;11.80;;;10.43;;
60722;SDS011;46574;52.818;6.516;2022-08-19T05:00:32;12.50;;;9.23;;
60722;SDS011;46574;52.818;6.516;2022-08-19T05:03:00;13.10;;;9.95;;
60722;SDS011;46574;52.818;6.516;2022-08-19T05:05:28;10.02;;;8.63;;
60722;SDS011;46574;52.818;6.516;2022-08-19T05:07:53;11.27;;;9.68;;
60722;SDS011;46574;52.818;6.516;2022-08-19T05:10:20;10.85;;;9.20;;
60722;SDS011;46574;52.818;6.516;2022-08-19T05:12:46;10.63;;;9.50;;
60722;SDS011;46574;52.818;6.516;2022-08-19T05:15:12;11.82;;;9.55;;
60722;SDS011;46574;52.818;6.516;2022-08-19T05:17:37;13.15;;;10.82;;
60722;SDS011;46574;52.818;6.516;2022-08-19T05:20:23;11.98;;;10.38;;
60722;SDS011;46574;52.818;6.516;2022-08-19T05:23:07;10.93;;;9.30;;
60722;SDS011;46574;52.818;6.516;2022-08-19T05:25:38;11.10;;;9.25;;
60722;SDS011;46574;52.818;6.516;2022-08-19T05:30:30;9.32;;;8.32;;
60722;SDS011;46574;52.818;6.516;2022-08-19T05:32:55;12.60;;;10.18;;
60722;SDS011;46574;52.818;6.516;2022-08-19T05:35:21;11.35;;;9.70;;
60722;SDS011;46574;52.818;6.516;2022-08-19T05:37:48;15.32;;;12.77;;
60722;SDS011;46574;52.818;6.516;2022-08-19T05:40:14;12.52;;;10.15;;
60722;SDS011;46574;52.818;6.516;2022-08-19T05:42:40;13.23;;;11.85;;
60722;SDS011;46574;52.818;6.516;2022-08-19T05:45:06;15.85;;;13.88;;
60722;SDS011;46574;52.818;6.516;2022-08-19T05:47:32;17.65;;;14.07;;
60722;SDS011;46574;52.818;6.516;2022-08-19T05:49:58;22.17;;;17.13;;
60722;SDS011;46574;52.818;6.516;2022-08-19T05:52:23;22.15;;;17.75;;
60722;SDS011;46574;52.818;6.516;2022-08-19T05:54:49;20.30;;;16.63;;
60722;SDS011;46574;52.818;6.516;2022-08-19T05:57:16;14.30;;;12.38;;
60722;SDS011;46574;52.818;6.516;2022-08-19T05:59:42;18.95;;;14.82;;
60722;SDS011;46574;52.818;6.516;2022-08-19T06:02:09;20.08;;;16.13;;
60722;SDS011;46574;52.818;6.516;2022-08-19T06:04:35;18.88;;;15.40;;
60722;SDS011;46574;52.818;6.516;2022-08-19T06:07:00;18.83;;;16.38;;
60722;SDS011;46574;52.818;6.516;2022-08-19T06:09:27;26.95;;;19.67;;
60722;SDS011;46574;52.818;6.516;2022-08-19T06:11:56;20.73;;;16.77;;
60722;SDS011;46574;52.818;6.516;2022-08-19T06:14:27;18.02;;;15.07;;
60722;SDS011;46574;52.818;6.516;2022-08-19T06:16:55;15.77;;;14.07;;
60722;SDS011;46574;52.818;6.516;2022-08-19T06:19:22;15.07;;;13.10;;
60722;SDS011;46574;52.818;6.516;2022-08-19T06:21:49;19.55;;;16.73;;
60722;SDS011;46574;52.818;6.516;2022-08-19T06:24:17;19.88;;;16.75;;
60722;SDS011;46574;52.818;6.516;2022-08-19T06:26:46;16.73;;;14.13;;
60722;SDS011;46574;52.818;6.516;2022-08-19T06:29:13;17.70;;;14.97;;
60722;SDS011;46574;52.818;6.516;2022-08-19T06:31:42;18.02;;;15.55;;
60722;SDS011;46574;52.818;6.516;2022-08-19T06:34:10;18.35;;;15.73;;
60722;SDS011;46574;52.818;6.516;2022-08-19T06:36:37;18.60;;;14.13;;
60722;SDS011;46574;52.818;6.516;2022-08-19T06:39:10;19.00;;;15.40;;
60722;SDS011;46574;52.818;6.516;2022-08-19T06:41:39;19.70;;;16.27;;
60722;SDS011;46574;52.818;6.516;2022-08-19T06:44:06;17.25;;;13.68;;
60722;SDS011;46574;52.818;6.516;2022-08-19T06:46:33;19.92;;;15.88;;
60722;SDS011;46574;52.818;6.516;2022-08-19T06:48:59;19.75;;;17.42;;
60722;SDS011;46574;52.818;6.516;2022-08-19T06:51:25;24.75;;;18.42;;
60722;SDS011;46574;52.818;6.516;2022-08-19T06:53:51;19.48;;;15.70;;
60722;SDS011;46574;52.818;6.516;2022-08-19T06:56:20;19.55;;;16.88;;
60722;SDS011;46574;52.818;6.516;2022-08-19T06:58:50;21.27;;;17.60;;
60722;SDS011;46574;52.818;6.516;2022-08-19T07:01:17;21.40;;;16.88;;
60722;SDS011;46574;52.818;6.516;2022-08-19T07:03:44;20.90;;;17.33;;
60722;SDS011;46574;52.818;6.516;2022-08-19T07:06:13;18.33;;;15.88;;
60722;SDS011;46574;52.818;6.516;2022-08-19T07:08:42;18.50;;;14.70;;
60722;SDS011;46574;52.818;6.516;2022-08-19T07:11:11;19.00;;;16.40;;
60722;SDS011;46574;52.818;6.516;2022-08-19T07:13:39;18.92;;;16.85;;
60722;SDS011;46574;52.818;6.516;2022-08-19T07:16:05;19.98;;;16.52;;
60722;SDS011;46574;52.818;6.516;2022-08-19T07:18:32;18.25;;;16.13;;
60722;SDS011;46574;52.818;6.516;2022-08-19T07:21:05;19.65;;;16.80;;
60722;SDS011;46574;52.818;6.516;2022-08-19T07:23:36;20.55;;;18.02;;
60722;SDS011;46574;52.818;6.516;2022-08-19T07:26:08;18.92;;;16.70;;
60722;SDS011;46574;52.818;6.516;2022-08-19T07:28:36;18.75;;;16.75;;
60722;SDS011;46574;52.818;6.516;2022-08-19T07:31:05;18.08;;;16.17;;
60722;SDS011;46574;52.818;6.516;2022-08-19T07:33:31;17.52;;;15.48;;
60722;SDS011;46574;52.818;6.516;2022-08-19T07:35:58;20.08;;;17.17;;
60722;SDS011;46574;52.818;6.516;2022-08-19T07:38:24;17.90;;;16.10;;
60722;SDS011;46574;52.818;6.516;2022-08-19T07:40:49;17.83;;;16.00;;
60722;SDS011;46574;52.818;6.516;2022-08-19T07:43:16;15.73;;;14.13;;
60722;SDS011;46574;52.818;6.516;2022-08-19T07:45:45;16.95;;;15.15;;
60722;SDS011;46574;52.818;6.516;2022-08-19T07:48:11;14.43;;;12.02;;
60722;SDS011;46574;52.818;6.516;2022-08-19T07:50:37;15.88;;;14.27;;
60722;SDS011;46574;52.818;6.516;2022-08-19T07:53:03;15.77;;;14.18;;
60722;SDS011;46574;52.818;6.516;2022-08-19T07:55:29;14.23;;;12.82;;
60722;SDS011;46574;52.818;6.516;2022-08-19T07:57:54;15.65;;;14.15;;
60722;SDS011;46574;52.818;6.516;2022-08-19T08:00:20;16.33;;;14.63;;
60722;SDS011;46574;52.818;6.516;2022-08-19T08:02:46;14.75;;;13.25;;
60722;SDS011;46574;52.818;6.516;2022-08-19T08:05:11;14.15;;;12.75;;
60722;SDS011;46574;52.818;6.516;2022-08-19T08:08:03;15.35;;;13.60;;
60722;SDS011;46574;52.818;6.516;2022-08-19T08:10:47;12.82;;;11.55;;
60722;SDS011;46574;52.818;6.516;2022-08-19T08:13:13;13.75;;;12.52;;
60722;SDS011;46574;52.818;6.516;2022-08-19T08:15:39;12.23;;;11.05;;
60722;SDS011;46574;52.818;6.516;2022-08-19T08:18:05;13.63;;;12.23;;
60722;SDS011;46574;52.818;6.516;2022-08-19T08:20:31;15.85;;;14.25;;
60722;SDS011;46574;52.818;6.516;2022-08-19T08:22:57;15.55;;;13.38;;
60722;SDS011;46574;52.818;6.516;2022-08-19T08:25:41;15.07;;;13.55;;
60722;SDS011;46574;52.818;6.516;2022-08-19T08:28:07;17.20;;;15.45;;
60722;SDS011;46574;52.818;6.516;2022-08-19T08:30:34;15.75;;;14.15;;
60722;SDS011;46574;52.818;6.516;2022-08-19T08:33:01;20.70;;;18.00;;
60722;SDS011;46574;52.818;6.516;2022-08-19T08:35:27;18.83;;;16.85;;
60722;SDS011;46574;52.818;6.516;2022-08-19T08:37:54;19.27;;;17.27;;
60722;SDS011;46574;52.818;6.516;2022-08-19T08:43:10;16.08;;;14.48;;
60722;SDS011;46574;52.818;6.516;2022-08-19T08:46:44;19.50;;;17.48;;
60722;SDS011;46574;52.818;6.516;2022-08-19T08:51:44;15.43;;;14.00;;
60722;SDS011;46574;52.818;6.516;2022-08-19T08:54:19;20.65;;;18.55;;
60722;SDS011;46574;52.818;6.516;2022-08-19T08:56:50;19.15;;;16.88;;
60722;SDS011;46574;52.818;6.516;2022-08-19T08:59:23;21.25;;;19.15;;
60722;SDS011;46574;52.818;6.516;2022-08-19T09:01:56;17.42;;;15.75;;
60722;SDS011;46574;52.818;6.516;2022-08-19T09:04:21;21.15;;;18.63;;
60722;SDS011;46574;52.818;6.516;2022-08-19T09:06:51;19.15;;;16.88;;
60722;SDS011;46574;52.818;6.516;2022-08-19T09:12:05;16.67;;;14.88;;
60722;SDS011;46574;52.818;6.516;2022-08-19T09:14:46;15.20;;;13.70;;
60722;SDS011;46574;52.818;6.516;2022-08-19T09:17:16;16.42;;;14.82;;
60722;SDS011;46574;52.818;6.516;2022-08-19T09:19:56;14.93;;;13.52;;
60722;SDS011;46574;52.818;6.516;2022-08-19T09:22:38;13.98;;;12.57;;
60722;SDS011;46574;52.818;6.516;2022-08-19T09:25:09;19.02;;;17.05;;
60722;SDS011;46574;52.818;6.516;2022-08-19T09:27:41;15.52;;;14.00;;
60722;SDS011;46574;52.818;6.516;2022-08-19T09:30:08;16.52;;;14.88;;
60722;SDS011;46574;52.818;6.516;2022-08-19T09:32:39;14.50;;;13.10;;
60722;SDS011;46574;52.818;6.516;2022-08-19T09:35:07;16.63;;;15.10;;
60722;SDS011;46574;52.818;6.516;2022-08-19T09:37:33;13.80;;;12.57;;
60722;SDS011;46574;52.818;6.516;2022-08-19T09:39:59;15.07;;;13.68;;
60722;SDS011;46574;52.818;6.516;2022-08-19T09:42:25;14.80;;;13.50;;
60722;SDS011;46574;52.818;6.516;2022-08-19T09:44:50;15.65;;;14.10;;
60722;SDS011;46574;52.818;6.516;2022-08-19T09:47:16;13.82;;;12.40;;
60722;SDS011;46574;52.818;6.516;2022-08-19T09:49:41;12.23;;;11.07;;
60722;SDS011;46574;52.818;6.516;2022-08-19T09:52:10;15.02;;;13.63;;
60722;SDS011;46574;52.818;6.516;2022-08-19T09:54:37;11.43;;;10.43;;
60722;SDS011;46574;52.818;6.516;2022-08-19T09:57:03;12.88;;;11.55;;
60722;SDS011;46574;52.818;6.516;2022-08-19T09:59:29;15.32;;;13.93;;
60722;SDS011;46574;52.818;6.516;2022-08-19T10:01:55;12.15;;;11.15;;
60722;SDS011;46574;52.818;6.516;2022-08-19T10:04:21;10.73;;;9.68;;
60722;SDS011;46574;52.818;6.516;2022-08-19T10:06:47;13.43;;;12.15;;
60722;SDS011;46574;52.818;6.516;2022-08-19T10:09:15;11.80;;;10.73;;
60722;SDS011;46574;52.818;6.516;2022-08-19T10:11:42;9.80;;;8.82;;
60722;SDS011;46574;52.818;6.516;2022-08-19T10:14:13;8.65;;;7.90;;
60722;SDS011;46574;52.818;6.516;2022-08-19T10:16:39;10.63;;;9.35;;
60722;SDS011;46574;52.818;6.516;2022-08-19T10:19:06;9.77;;;8.98;;
60722;SDS011;46574;52.818;6.516;2022-08-19T10:21:34;9.10;;;8.30;;
60722;SDS011;46574;52.818;6.516;2022-08-19T10:24:01;9.07;;;8.23;;
60722;SDS011;46574;52.818;6.516;2022-08-19T10:26:37;7.32;;;6.72;;
60722;SDS011;46574;52.818;6.516;2022-08-19T10:29:04;7.88;;;7.20;;
60722;SDS011;46574;52.818;6.516;2022-08-19T10:31:31;7.35;;;6.72;;
60722;SDS011;46574;52.818;6.516;2022-08-19T10:33:58;6.65;;;6.07;;
60722;SDS011;46574;52.818;6.516;2022-08-19T10:36:31;7.72;;;7.13;;
60722;SDS011;46574;52.818;6.516;2022-08-19T10:39:01;8.43;;;7.72;;
60722;SDS011;46574;52.818;6.516;2022-08-19T10:41:31;6.90;;;6.20;;
60722;SDS011;46574;52.818;6.516;2022-08-19T10:43:59;8.98;;;7.97;;
60722;SDS011;46574;52.818;6.516;2022-08-19T10:46:29;8.45;;;7.75;;
60722;SDS011;46574;52.818;6.516;2022-08-19T10:48:57;8.82;;;8.00;;
60722;SDS011;46574;52.818;6.516;2022-08-19T10:51:24;8.10;;;7.40;;
60722;SDS011;46574;52.818;6.516;2022-08-19T10:54:09;6.88;;;6.28;;
60722;SDS011;46574;52.818;6.516;2022-08-19T10:56:35;8.90;;;8.15;;
60722;SDS011;46574;52.818;6.516;2022-08-19T10:59:16;9.70;;;8.88;;
60722;SDS011;46574;52.818;6.516;2022-08-19T11:01:52;9.57;;;8.65;;
60722;SDS011;46574;52.818;6.516;2022-08-19T11:04:19;9.40;;;8.60;;
60722;SDS011;46574;52.818;6.516;2022-08-19T11:06:45;9.32;;;8.45;;
60722;SDS011;46574;52.818;6.516;2022-08-19T11:09:13;12.30;;;11.05;;
60722;SDS011;46574;52.818;6.516;2022-08-19T11:11:40;11.43;;;10.43;;
60722;SDS011;46574;52.818;6.516;2022-08-19T11:14:07;12.70;;;11.52;;
60722;SDS011;46574;52.818;6.516;2022-08-19T11:16:34;11.05;;;10.00;;
60722;SDS011;46574;52.818;6.516;2022-08-19T11:19:01;10.60;;;9.60;;
60722;SDS011;46574;52.818;6.516;2022-08-19T11:21:29;9.32;;;8.35;;
60722;SDS011;46574;52.818;6.516;2022-08-19T11:23:58;11.23;;;10.25;;
60722;SDS011;46574;52.818;6.516;2022-08-19T11:26:26;10.90;;;10.00;;
60722;SDS011;46574;52.818;6.516;2022-08-19T11:28:53;12.43;;;11.27;;
60722;SDS011;46574;52.818;6.516;2022-08-19T11:31:20;11.20;;;10.20;;
60722;SDS011;46574;52.818;6.516;2022-08-19T11:36:19;10.88;;;9.98;;
60722;SDS011;46574;52.818;6.516;2022-08-19T11:38:46;10.77;;;9.77;;
60722;SDS011;46574;52.818;6.516;2022-08-19T11:41:13;8.93;;;8.25;;
60722;SDS011;46574;52.818;6.516;2022-08-19T11:43:39;8.63;;;7.93;;
60722;SDS011;46574;52.818;6.516;2022-08-19T11:46:06;10.85;;;9.95;;
60722;SDS011;46574;52.818;6.516;2022-08-19T11:48:34;14.77;;;13.40;;
60722;SDS011;46574;52.818;6.516;2022-08-19T11:51:03;17.17;;;15.57;;
60722;SDS011;46574;52.818;6.516;2022-08-19T11:53:31;14.70;;;13.30;;
60722;SDS011;46574;52.818;6.516;2022-08-19T11:55:57;13.00;;;11.80;;
60722;SDS011;46574;52.818;6.516;2022-08-19T11:58:23;10.38;;;9.57;;
60722;SDS011;46574;52.818;6.516;2022-08-19T12:00:50;11.30;;;10.40;;
60722;SDS011;46574;52.818;6.516;2022-08-19T12:03:16;14.15;;;12.82;;
60722;SDS011;46574;52.818;6.516;2022-08-19T12:05:43;10.55;;;9.55;;
60722;SDS011;46574;52.818;6.516;2022-08-19T12:08:09;10.32;;;9.50;;
60722;SDS011;46574;52.818;6.516;2022-08-19T12:10:36;10.48;;;9.65;;
60722;SDS011;46574;52.818;6.516;2022-08-19T12:13:02;10.70;;;9.85;;
60722;SDS011;46574;52.818;6.516;2022-08-19T12:15:27;8.55;;;7.75;;
60722;SDS011;46574;52.818;6.516;2022-08-19T12:17:54;9.77;;;8.98;;
60722;SDS011;46574;52.818;6.516;2022-08-19T12:20:22;8.23;;;7.43;;
60722;SDS011;46574;52.818;6.516;2022-08-19T12:22:48;11.15;;;10.02;;
60722;SDS011;46574;52.818;6.516;2022-08-19T12:25:15;10.80;;;9.80;;
60722;SDS011;46574;52.818;6.516;2022-08-19T12:27:41;11.77;;;10.77;;
60722;SDS011;46574;52.818;6.516;2022-08-19T12:30:08;9.93;;;9.10;;
60722;SDS011;46574;52.818;6.516;2022-08-19T12:32:35;9.15;;;8.35;;
60722;SDS011;46574;52.818;6.516;2022-08-19T12:35:01;6.57;;;6.07;;
60722;SDS011;46574;52.818;6.516;2022-08-19T12:37:27;4.57;;;4.20;;
60722;SDS011;46574;52.818;6.516;2022-08-19T12:39:52;4.78;;;4.38;;
60722;SDS011;46574;52.818;6.516;2022-08-19T12:42:18;6.35;;;5.85;;
60722;SDS011;46574;52.818;6.516;2022-08-19T12:44:44;6.85;;;6.25;;
60722;SDS011;46574;52.818;6.516;2022-08-19T12:47:10;6.57;;;5.88;;
60722;SDS011;46574;52.818;6.516;2022-08-19T12:49:39;5.72;;;5.25;;
60722;SDS011;46574;52.818;6.516;2022-08-19T12:52:06;7.28;;;6.57;;
60722;SDS011;46574;52.818;6.516;2022-08-19T12:54:33;5.80;;;5.30;;
60722;SDS011;46574;52.818;6.516;2022-08-19T12:56:59;7.60;;;6.90;;
60722;SDS011;46574;52.818;6.516;2022-08-19T12:59:25;8.77;;;8.07;;
60722;SDS011;46574;52.818;6.516;2022-08-19T13:01:52;5.97;;;5.50;;
60722;SDS011;46574;52.818;6.516;2022-08-19T13:04:18;7.53;;;6.82;;
60722;SDS011;46574;52.818;6.516;2022-08-19T13:06:43;8.32;;;7.20;;
60722;SDS011;46574;52.818;6.516;2022-08-19T13:09:09;8.30;;;7.55;;
60722;SDS011;46574;52.818;6.516;2022-08-19T13:11:36;7.70;;;7.00;;
60722;SDS011;46574;52.818;6.516;2022-08-19T13:14:02;10.98;;;9.98;;
60722;SDS011;46574;52.818;6.516;2022-08-19T13:16:29;10.85;;;9.85;;
60722;SDS011;46574;52.818;6.516;2022-08-19T13:18:55;11.85;;;10.85;;
60722;SDS011;46574;52.818;6.516;2022-08-19T13:21:24;14.98;;;13.48;;
60722;SDS011;46574;52.818;6.516;2022-08-19T13:23:52;12.48;;;11.38;;
60722;SDS011;46574;52.818;6.516;2022-08-19T13:26:19;9.02;;;8.05;;
60722;SDS011;46574;52.818;6.516;2022-08-19T13:28:45;6.90;;;6.20;;
60722;SDS011;46574;52.818;6.516;2022-08-19T13:31:31;6.45;;;5.85;;
60722;SDS011;46574;52.818;6.516;2022-08-19T13:34:18;7.57;;;6.88;;
60722;SDS011;46574;52.818;6.516;2022-08-19T13:36:51;9.77;;;8.77;;
60722;SDS011;46574;52.818;6.516;2022-08-19T13:39:17;14.18;;;11.68;;
60722;SDS011;46574;52.818;6.516;2022-08-19T13:41:44;10.90;;;9.85;;
60722;SDS011;46574;52.818;6.516;2022-08-19T13:44:13;12.05;;;10.85;;
60722;SDS011;46574;52.818;6.516;2022-08-19T13:46:45;12.18;;;11.07;;
60722;SDS011;46574;52.818;6.516;2022-08-19T13:49:13;13.23;;;12.05;;
60722;SDS011;46574;52.818;6.516;2022-08-19T13:51:40;13.80;;;12.50;;
60722;SDS011;46574;52.818;6.516;2022-08-19T13:54:08;12.23;;;11.02;;
60722;SDS011;46574;52.818;6.516;2022-08-19T13:56:35;15.75;;;14.15;;
60722;SDS011;46574;52.818;6.516;2022-08-19T13:59:04;15.40;;;13.93;;
60722;SDS011;46574;52.818;6.516;2022-08-19T14:01:30;14.98;;;13.63;;
60722;SDS011;46574;52.818;6.516;2022-08-19T14:03:56;15.30;;;13.90;;
60722;SDS011;46574;52.818;6.516;2022-08-19T14:06:21;14.15;;;12.85;;
60722;SDS011;46574;52.818;6.516;2022-08-19T14:08:47;15.80;;;14.30;;
60722;SDS011;46574;52.818;6.516;2022-08-19T14:11:13;15.38;;;13.88;;
60722;SDS011;46574;52.818;6.516;2022-08-19T14:13:39;20.80;;;18.90;;
60722;SDS011;46574;52.818;6.516;2022-08-19T14:16:09;17.58;;;15.80;;
60722;SDS011;46574;52.818;6.516;2022-08-19T14:18:36;19.42;;;17.52;;
60722;SDS011;46574;52.818;6.516;2022-08-19T14:21:03;21.27;;;19.02;;
60722;SDS011;46574;52.818;6.516;2022-08-19T14:23:30;19.75;;;17.85;;
60722;SDS011;46574;52.818;6.516;2022-08-19T14:26:09;18.65;;;16.85;;
60722;SDS011;46574;52.818;6.516;2022-08-19T14:28:37;17.50;;;15.77;;
60722;SDS011;46574;52.818;6.516;2022-08-19T14:31:04;17.75;;;16.05;;
60722;SDS011;46574;52.818;6.516;2022-08-19T14:33:30;18.73;;;16.88;;
60722;SDS011;46574;52.818;6.516;2022-08-19T14:35:57;17.63;;;16.02;;
60722;SDS011;46574;52.818;6.516;2022-08-19T14:38:22;19.98;;;18.02;;
60722;SDS011;46574;52.818;6.516;2022-08-19T14:40:48;20.85;;;18.88;;
60722;SDS011;46574;52.818;6.516;2022-08-19T14:43:14;18.42;;;16.52;;
60722;SDS011;46574;52.818;6.516;2022-08-19T14:45:40;17.92;;;16.10;;
60722;SDS011;46574;52.818;6.516;2022-08-19T14:48:07;20.00;;;18.17;;
60722;SDS011;46574;52.818;6.516;2022-08-19T14:50:33;20.13;;;18.20;;
60722;SDS011;46574;52.818;6.516;2022-08-19T14:53:05;23.83;;;21.33;;
60722;SDS011;46574;52.818;6.516;2022-08-19T14:55:33;20.73;;;18.52;;